sensor_id;sensor_type;location;lat;lon;timestamp;temperature;humidity
22108;DHT22;11220;48.812;9.128;2023-03-23T00:02:11;18.90;73.70
22108;DHT22;11220;48.812;9.128;2023-03-23T00:04:37;18.90;73.70
22108;DHT22;11220;48.812;9.128;2023-03-23T00:07:02;18.90;73.70
22108;DHT22;11220;48.812;9.128;2023-03-23T00:09:28;18.90;73.70
22108;DHT22;11220;48.812;9.128;2023-03-23T00:11:55;18.90;73.60
22108;DHT22;11220;48.812;9.128;2023-03-23T00:14:23;18.90;73.70
22108;DHT22;11220;48.812;9.128;2023-03-23T00:16:50;18.90;73.70
22108;DHT22;11220;48.812;9.128;2023-03-23T00:19:16;18.90;73.60
22108;DHT22;11220;48.812;9.128;2023-03-23T00:21:44;18.90;73.70
22108;DHT22;11220;48.812;9.128;2023-03-23T00:24:13;18.90;73.60
22108;DHT22;11220;48.812;9.128;2023-03-23T00:26:41;18.90;73.60
22108;DHT22;11220;48.812;9.128;2023-03-23T00:29:13;18.90;73.50
22108;DHT22;11220;48.812;9.128;2023-03-23T00:31:39;18.80;73.50
22108;DHT22;11220;48.812;9.128;2023-03-23T00:34:05;18.90;73.50
22108;DHT22;11220;48.812;9.128;2023-03-23T00:36:33;18.80;73.50
22108;DHT22;11220;48.812;9.128;2023-03-23T00:39:01;18.80;73.40
22108;DHT22;11220;48.812;9.128;2023-03-23T00:41:27;18.80;73.40
22108;DHT22;11220;48.812;9.128;2023-03-23T00:43:57;18.80;73.40
22108;DHT22;11220;48.812;9.128;2023-03-23T00:46:24;18.80;73.40
22108;DHT22;11220;48.812;9.128;2023-03-23T00:48:50;18.80;73.50
22108;DHT22;11220;48.812;9.128;2023-03-23T00:51:18;18.80;73.40
22108;DHT22;11220;48.812;9.128;2023-03-23T00:53:44;18.80;73.40
22108;DHT22;11220;48.812;9.128;2023-03-23T00:56:11;18.80;73.40
22108;DHT22;11220;48.812;9.128;2023-03-23T00:58:37;18.80;73.40
22108;DHT22;11220;48.812;9.128;2023-03-23T01:01:03;18.80;73.30
22108;DHT22;11220;48.812;9.128;2023-03-23T01:03:28;18.80;73.30
22108;DHT22;11220;48.812;9.128;2023-03-23T01:05:54;18.80;73.30
22108;DHT22;11220;48.812;9.128;2023-03-23T01:08:21;18.80;73.30
22108;DHT22;11220;48.812;9.128;2023-03-23T01:10:47;18.80;73.30
22108;DHT22;11220;48.812;9.128;2023-03-23T01:13:14;18.80;73.30
22108;DHT22;11220;48.812;9.128;2023-03-23T01:15:40;18.80;73.30
22108;DHT22;11220;48.812;9.128;2023-03-23T01:18:05;18.80;73.40
22108;DHT22;11220;48.812;9.128;2023-03-23T01:20:32;18.80;73.30
22108;DHT22;11220;48.812;9.128;2023-03-23T01:22:58;18.80;73.30
22108;DHT22;11220;48.812;9.128;2023-03-23T01:25:31;18.80;73.30
22108;DHT22;11220;48.812;9.128;2023-03-23T01:27:57;18.70;73.20
22108;DHT22;11220;48.812;9.128;2023-03-23T01:30:23;18.80;73.30
22108;DHT22;11220;48.812;9.128;2023-03-23T01:32:49;18.80;73.30
22108;DHT22;11220;48.812;9.128;2023-03-23T01:35:15;18.80;73.30
22108;DHT22;11220;48.812;9.128;2023-03-23T01:37:41;18.80;73.30
22108;DHT22;11220;48.812;9.128;2023-03-23T01:40:07;18.70;73.20
22108;DHT22;11220;48.812;9.128;2023-03-23T01:42:35;18.80;73.30
22108;DHT22;11220;48.812;9.128;2023-03-23T01:48:08;18.70;73.20
22108;DHT22;11220;48.812;9.128;2023-03-23T01:53:15;18.70;73.20
22108;DHT22;11220;48.812;9.128;2023-03-23T01:55:43;18.70;73.30
22108;DHT22;11220;48.812;9.128;2023-03-23T01:58:09;18.70;73.20
22108;DHT22;11220;48.812;9.128;2023-03-23T02:00:37;18.70;73.30
22108;DHT22;11220;48.812;9.128;2023-03-23T02:03:05;18.70;73.20
22108;DHT22;11220;48.812;9.128;2023-03-23T02:05:37;18.70;73.20
22108;DHT22;11220;48.812;9.128;2023-03-23T02:08:04;18.70;73.20
22108;DHT22;11220;48.812;9.128;2023-03-23T02:10:31;18.70;73.30
22108;DHT22;11220;48.812;9.128;2023-03-23T02:12:58;18.70;73.30
22108;DHT22;11220;48.812;9.128;2023-03-23T02:15:28;18.70;73.30
22108;DHT22;11220;48.812;9.128;2023-03-23T02:18:03;18.70;73.30
22108;DHT22;11220;48.812;9.128;2023-03-23T02:20:48;18.70;73.30
22108;DHT22;11220;48.812;9.128;2023-03-23T02:26:25;18.70;73.30
22108;DHT22;11220;48.812;9.128;2023-03-23T02:31:56;18.70;73.30
22108;DHT22;11220;48.812;9.128;2023-03-23T02:34:29;18.70;73.30
22108;DHT22;11220;48.812;9.128;2023-03-23T02:37:03;18.70;73.30
22108;DHT22;11220;48.812;9.128;2023-03-23T02:39:33;18.70;73.40
22108;DHT22;11220;48.812;9.128;2023-03-23T02:42:07;18.70;73.30
22108;DHT22;11220;48.812;9.128;2023-03-23T02:44:36;18.70;73.40
22108;DHT22;11220;48.812;9.128;2023-03-23T02:47:06;18.70;73.40
22108;DHT22;11220;48.812;9.128;2023-03-23T02:49:34;18.70;73.40
22108;DHT22;11220;48.812;9.128;2023-03-23T02:52:11;18.70;73.40
22108;DHT22;11220;48.812;9.128;2023-03-23T02:54:42;18.70;73.40
22108;DHT22;11220;48.812;9.128;2023-03-23T02:57:08;18.70;73.40
22108;DHT22;11220;48.812;9.128;2023-03-23T02:59:34;18.70;73.40
22108;DHT22;11220;48.812;9.128;2023-03-23T03:02:07;18.70;73.40
22108;DHT22;11220;48.812;9.128;2023-03-23T03:04:36;18.60;73.30
22108;DHT22;11220;48.812;9.128;2023-03-23T03:09:56;18.70;73.40
22108;DHT22;11220;48.812;9.128;2023-03-23T03:15:17;18.70;73.40
22108;DHT22;11220;48.812;9.128;2023-03-23T03:20:36;18.60;73.40
22108;DHT22;11220;48.812;9.128;2023-03-23T03:23:04;18.60;73.40
22108;DHT22;11220;48.812;9.128;2023-03-23T03:25:33;18.60;73.40
22108;DHT22;11220;48.812;9.128;2023-03-23T03:27:59;18.60;73.40
22108;DHT22;11220;48.812;9.128;2023-03-23T03:30:29;18.60;73.50
22108;DHT22;11220;48.812;9.128;2023-03-23T03:32:57;18.60;73.50
22108;DHT22;11220;48.812;9.128;2023-03-23T03:35:25;18.60;73.40
22108;DHT22;11220;48.812;9.128;2023-03-23T03:37:51;18.60;74.00
22108;DHT22;11220;48.812;9.128;2023-03-23T03:40:20;18.60;73.40
22108;DHT22;11220;48.812;9.128;2023-03-23T03:42:46;18.60;73.40
22108;DHT22;11220;48.812;9.128;2023-03-23T03:45:15;18.60;73.40
22108;DHT22;11220;48.812;9.128;2023-03-23T03:47:41;18.60;73.40
22108;DHT22;11220;48.812;9.128;2023-03-23T03:50:07;18.60;73.40
22108;DHT22;11220;48.812;9.128;2023-03-23T03:52:33;18.60;73.40
22108;DHT22;11220;48.812;9.128;2023-03-23T03:54:59;18.60;73.40
22108;DHT22;11220;48.812;9.128;2023-03-23T03:57:25;18.60;73.50
22108;DHT22;11220;48.812;9.128;2023-03-23T03:59:51;18.60;73.50
22108;DHT22;11220;48.812;9.128;2023-03-23T04:02:17;18.60;73.50
22108;DHT22;11220;48.812;9.128;2023-03-23T04:04:46;18.60;73.50
22108;DHT22;11220;48.812;9.128;2023-03-23T04:07:12;18.60;73.50
22108;DHT22;11220;48.812;9.128;2023-03-23T04:09:40;18.60;73.50
22108;DHT22;11220;48.812;9.128;2023-03-23T04:12:06;18.60;73.50
22108;DHT22;11220;48.812;9.128;2023-03-23T04:14:32;18.60;73.50
22108;DHT22;11220;48.812;9.128;2023-03-23T04:16:58;18.50;73.40
22108;DHT22;11220;48.812;9.128;2023-03-23T04:19:24;18.50;73.40
22108;DHT22;11220;48.812;9.128;2023-03-23T04:21:50;18.60;73.40
22108;DHT22;11220;48.812;9.128;2023-03-23T04:24:16;18.60;73.50
22108;DHT22;11220;48.812;9.128;2023-03-23T04:26:41;18.50;73.40
22108;DHT22;11220;48.812;9.128;2023-03-23T04:29:08;18.60;73.40
22108;DHT22;11220;48.812;9.128;2023-03-23T04:31:34;18.50;73.40
22108;DHT22;11220;48.812;9.128;2023-03-23T04:34:01;18.50;73.40
22108;DHT22;11220;48.812;9.128;2023-03-23T04:36:27;18.60;73.50
22108;DHT22;11220;48.812;9.128;2023-03-23T04:38:54;18.50;73.40
22108;DHT22;11220;48.812;9.128;2023-03-23T04:41:21;18.50;73.40
22108;DHT22;11220;48.812;9.128;2023-03-23T04:43:48;18.60;73.40
22108;DHT22;11220;48.812;9.128;2023-03-23T04:46:18;18.50;73.40
22108;DHT22;11220;48.812;9.128;2023-03-23T04:48:45;18.50;73.40
22108;DHT22;11220;48.812;9.128;2023-03-23T04:51:11;18.50;73.40
22108;DHT22;11220;48.812;9.128;2023-03-23T04:53:37;18.50;73.40
22108;DHT22;11220;48.812;9.128;2023-03-23T04:56:03;18.50;73.40
22108;DHT22;11220;48.812;9.128;2023-03-23T04:58:29;18.50;73.40
22108;DHT22;11220;48.812;9.128;2023-03-23T05:00:59;18.50;73.40
22108;DHT22;11220;48.812;9.128;2023-03-23T05:03:25;18.50;73.40
22108;DHT22;11220;48.812;9.128;2023-03-23T05:05:51;18.50;73.30
22108;DHT22;11220;48.812;9.128;2023-03-23T05:08:18;18.60;73.40
22108;DHT22;11220;48.812;9.128;2023-03-23T05:10:56;18.50;73.40
22108;DHT22;11220;48.812;9.128;2023-03-23T05:13:21;18.50;73.40
22108;DHT22;11220;48.812;9.128;2023-03-23T05:15:47;18.50;73.40
22108;DHT22;11220;48.812;9.128;2023-03-23T05:18:13;18.50;73.40
22108;DHT22;11220;48.812;9.128;2023-03-23T05:20:40;18.50;73.40
22108;DHT22;11220;48.812;9.128;2023-03-23T05:23:07;18.50;73.40
22108;DHT22;11220;48.812;9.128;2023-03-23T05:25:33;18.50;73.40
22108;DHT22;11220;48.812;9.128;2023-03-23T05:28:08;18.50;73.40
22108;DHT22;11220;48.812;9.128;2023-03-23T05:30:36;18.50;73.40
22108;DHT22;11220;48.812;9.128;2023-03-23T05:33:02;18.50;73.40
22108;DHT22;11220;48.812;9.128;2023-03-23T05:35:28;18.50;73.40
22108;DHT22;11220;48.812;9.128;2023-03-23T05:37:54;18.50;73.40
22108;DHT22;11220;48.812;9.128;2023-03-23T05:40:21;18.50;73.40
22108;DHT22;11220;48.812;9.128;2023-03-23T05:42:47;18.50;73.90
22108;DHT22;11220;48.812;9.128;2023-03-23T05:45:13;18.50;73.50
22108;DHT22;11220;48.812;9.128;2023-03-23T05:47:40;18.50;73.60
22108;DHT22;11220;48.812;9.128;2023-03-23T05:50:07;18.50;73.70
22108;DHT22;11220;48.812;9.128;2023-03-23T05:52:34;18.60;73.70
22108;DHT22;11220;48.812;9.128;2023-03-23T05:55:01;18.50;73.70
22108;DHT22;11220;48.812;9.128;2023-03-23T05:57:28;18.50;73.70
22108;DHT22;11220;48.812;9.128;2023-03-23T05:59:54;18.50;73.70
22108;DHT22;11220;48.812;9.128;2023-03-23T06:02:21;18.50;73.70
22108;DHT22;11220;48.812;9.128;2023-03-23T06:04:48;18.50;73.60
22108;DHT22;11220;48.812;9.128;2023-03-23T06:07:14;18.50;73.60
22108;DHT22;11220;48.812;9.128;2023-03-23T06:09:40;18.60;73.70
22108;DHT22;11220;48.812;9.128;2023-03-23T06:12:07;18.60;73.70
22108;DHT22;11220;48.812;9.128;2023-03-23T06:14:33;18.60;73.70
22108;DHT22;11220;48.812;9.128;2023-03-23T06:16:59;18.60;73.80
22108;DHT22;11220;48.812;9.128;2023-03-23T06:19:25;18.60;73.80
22108;DHT22;11220;48.812;9.128;2023-03-23T06:21:52;18.60;73.80
22108;DHT22;11220;48.812;9.128;2023-03-23T06:24:19;18.60;73.80
22108;DHT22;11220;48.812;9.128;2023-03-23T06:26:44;18.60;73.80
22108;DHT22;11220;48.812;9.128;2023-03-23T06:29:10;18.60;73.90
22108;DHT22;11220;48.812;9.128;2023-03-23T06:31:50;18.60;73.90
22108;DHT22;11220;48.812;9.128;2023-03-23T06:34:18;18.60;74.00
22108;DHT22;11220;48.812;9.128;2023-03-23T06:36:43;18.70;74.00
22108;DHT22;11220;48.812;9.128;2023-03-23T06:39:10;18.70;74.10
22108;DHT22;11220;48.812;9.128;2023-03-23T06:41:36;18.70;74.10
22108;DHT22;11220;48.812;9.128;2023-03-23T06:44:02;18.70;74.10
22108;DHT22;11220;48.812;9.128;2023-03-23T06:46:27;18.70;74.10
22108;DHT22;11220;48.812;9.128;2023-03-23T06:48:54;18.70;74.20
22108;DHT22;11220;48.812;9.128;2023-03-23T06:51:20;18.70;74.20
22108;DHT22;11220;48.812;9.128;2023-03-23T06:53:46;18.70;74.20
22108;DHT22;11220;48.812;9.128;2023-03-23T06:56:12;18.70;74.20
22108;DHT22;11220;48.812;9.128;2023-03-23T06:58:39;18.70;74.20
22108;DHT22;11220;48.812;9.128;2023-03-23T07:01:05;18.70;74.20
22108;DHT22;11220;48.812;9.128;2023-03-23T07:03:31;18.70;74.20
22108;DHT22;11220;48.812;9.128;2023-03-23T07:05:57;18.70;74.50
22108;DHT22;11220;48.812;9.128;2023-03-23T07:08:24;18.70;74.20
22108;DHT22;11220;48.812;9.128;2023-03-23T07:10:54;18.70;74.20
22108;DHT22;11220;48.812;9.128;2023-03-23T07:13:20;18.70;74.20
22108;DHT22;11220;48.812;9.128;2023-03-23T07:15:46;18.70;74.20
22108;DHT22;11220;48.812;9.128;2023-03-23T07:18:12;18.70;74.20
22108;DHT22;11220;48.812;9.128;2023-03-23T07:20:37;18.70;74.20
22108;DHT22;11220;48.812;9.128;2023-03-23T07:23:03;18.80;74.30
22108;DHT22;11220;48.812;9.128;2023-03-23T07:25:31;18.70;74.20
22108;DHT22;11220;48.812;9.128;2023-03-23T07:27:58;18.70;74.30
22108;DHT22;11220;48.812;9.128;2023-03-23T07:30:24;18.70;74.40
22108;DHT22;11220;48.812;9.128;2023-03-23T07:32:49;18.70;74.30
22108;DHT22;11220;48.812;9.128;2023-03-23T07:35:16;18.70;74.40
22108;DHT22;11220;48.812;9.128;2023-03-23T07:37:41;18.70;74.30
22108;DHT22;11220;48.812;9.128;2023-03-23T07:40:07;18.70;74.30
22108;DHT22;11220;48.812;9.128;2023-03-23T07:42:33;18.70;74.40
22108;DHT22;11220;48.812;9.128;2023-03-23T07:44:59;18.70;74.40
22108;DHT22;11220;48.812;9.128;2023-03-23T07:47:25;18.70;74.40
22108;DHT22;11220;48.812;9.128;2023-03-23T07:49:51;18.80;74.40
22108;DHT22;11220;48.812;9.128;2023-03-23T07:52:17;18.70;74.40
22108;DHT22;11220;48.812;9.128;2023-03-23T07:54:43;18.80;74.40
22108;DHT22;11220;48.812;9.128;2023-03-23T07:57:08;18.80;74.40
22108;DHT22;11220;48.812;9.128;2023-03-23T07:59:34;18.80;74.40
22108;DHT22;11220;48.812;9.128;2023-03-23T08:02:00;18.80;74.40
22108;DHT22;11220;48.812;9.128;2023-03-23T08:04:26;18.80;74.40
22108;DHT22;11220;48.812;9.128;2023-03-23T08:06:52;18.80;74.40
22108;DHT22;11220;48.812;9.128;2023-03-23T08:09:18;18.80;74.40
22108;DHT22;11220;48.812;9.128;2023-03-23T08:11:43;18.80;74.50
22108;DHT22;11220;48.812;9.128;2023-03-23T08:14:09;18.80;74.40
22108;DHT22;11220;48.812;9.128;2023-03-23T08:16:35;18.90;74.50
22108;DHT22;11220;48.812;9.128;2023-03-23T08:19:01;18.80;74.50
22108;DHT22;11220;48.812;9.128;2023-03-23T08:21:26;18.80;74.50
22108;DHT22;11220;48.812;9.128;2023-03-23T08:23:52;18.80;74.50
22108;DHT22;11220;48.812;9.128;2023-03-23T08:26:18;18.90;74.60
22108;DHT22;11220;48.812;9.128;2023-03-23T08:28:44;18.90;74.60
22108;DHT22;11220;48.812;9.128;2023-03-23T08:31:13;18.80;74.50
22108;DHT22;11220;48.812;9.128;2023-03-23T08:33:39;18.90;74.50
22108;DHT22;11220;48.812;9.128;2023-03-23T08:36:06;18.90;74.50
22108;DHT22;11220;48.812;9.128;2023-03-23T08:38:33;18.90;74.50
22108;DHT22;11220;48.812;9.128;2023-03-23T08:41:00;18.90;74.50
22108;DHT22;11220;48.812;9.128;2023-03-23T08:43:26;18.90;74.60
22108;DHT22;11220;48.812;9.128;2023-03-23T08:45:52;18.90;74.60
22108;DHT22;11220;48.812;9.128;2023-03-23T08:48:19;18.90;74.70
22108;DHT22;11220;48.812;9.128;2023-03-23T08:50:44;18.90;74.90
22108;DHT22;11220;48.812;9.128;2023-03-23T08:53:10;18.90;74.90
22108;DHT22;11220;48.812;9.128;2023-03-23T08:55:36;18.90;74.90
22108;DHT22;11220;48.812;9.128;2023-03-23T08:58:02;18.90;75.00
22108;DHT22;11220;48.812;9.128;2023-03-23T09:00:29;18.90;75.00
22108;DHT22;11220;48.812;9.128;2023-03-23T09:02:54;18.90;75.10
22108;DHT22;11220;48.812;9.128;2023-03-23T09:05:23;18.90;75.10
22108;DHT22;11220;48.812;9.128;2023-03-23T09:07:51;18.90;75.10
22108;DHT22;11220;48.812;9.128;2023-03-23T09:10:17;18.90;75.20
22108;DHT22;11220;48.812;9.128;2023-03-23T09:12:45;18.90;75.20
22108;DHT22;11220;48.812;9.128;2023-03-23T09:15:14;18.90;75.20
22108;DHT22;11220;48.812;9.128;2023-03-23T09:17:42;18.90;75.20
22108;DHT22;11220;48.812;9.128;2023-03-23T09:20:09;18.90;75.20
22108;DHT22;11220;48.812;9.128;2023-03-23T09:22:47;18.90;75.10
22108;DHT22;11220;48.812;9.128;2023-03-23T09:25:16;18.90;75.10
22108;DHT22;11220;48.812;9.128;2023-03-23T09:27:44;18.90;75.10
22108;DHT22;11220;48.812;9.128;2023-03-23T09:30:12;18.90;75.10
22108;DHT22;11220;48.812;9.128;2023-03-23T09:32:39;18.90;75.10
22108;DHT22;11220;48.812;9.128;2023-03-23T09:35:07;18.90;75.10
22108;DHT22;11220;48.812;9.128;2023-03-23T09:37:35;18.90;75.10
22108;DHT22;11220;48.812;9.128;2023-03-23T09:40:02;18.90;75.10
22108;DHT22;11220;48.812;9.128;2023-03-23T09:42:51;18.90;75.10
22108;DHT22;11220;48.812;9.128;2023-03-23T09:53:48;19.00;75.00
22108;DHT22;11220;48.812;9.128;2023-03-23T09:56:15;19.00;75.00
22108;DHT22;11220;48.812;9.128;2023-03-23T09:58:53;19.00;75.10
22108;DHT22;11220;48.812;9.128;2023-03-23T10:01:28;19.00;75.10
22108;DHT22;11220;48.812;9.128;2023-03-23T10:04:03;19.00;75.00
22108;DHT22;11220;48.812;9.128;2023-03-23T10:06:30;19.00;75.00
22108;DHT22;11220;48.812;9.128;2023-03-23T10:08:58;19.10;75.10
22108;DHT22;11220;48.812;9.128;2023-03-23T10:14:11;19.10;75.10
22108;DHT22;11220;48.812;9.128;2023-03-23T10:16:55;19.10;75.10
22108;DHT22;11220;48.812;9.128;2023-03-23T10:19:51;19.10;75.10
22108;DHT22;11220;48.812;9.128;2023-03-23T10:22:31;19.10;75.10
22108;DHT22;11220;48.812;9.128;2023-03-23T10:27:40;19.20;75.10
22108;DHT22;11220;48.812;9.128;2023-03-23T10:30:30;19.20;75.20
22108;DHT22;11220;48.812;9.128;2023-03-23T10:33:28;19.20;75.10
22108;DHT22;11220;48.812;9.128;2023-03-23T10:36:15;19.20;75.10
22108;DHT22;11220;48.812;9.128;2023-03-23T10:38:53;19.20;75.10
22108;DHT22;11220;48.812;9.128;2023-03-23T10:41:20;19.20;75.20
22108;DHT22;11220;48.812;9.128;2023-03-23T10:43:47;19.20;75.20
22108;DHT22;11220;48.812;9.128;2023-03-23T10:46:40;19.20;75.20
22108;DHT22;11220;48.812;9.128;2023-03-23T10:49:17;19.30;75.20
22108;DHT22;11220;48.812;9.128;2023-03-23T10:51:48;19.30;75.20
22108;DHT22;11220;48.812;9.128;2023-03-23T10:54:27;19.30;75.30
22108;DHT22;11220;48.812;9.128;2023-03-23T10:56:53;19.30;75.30
22108;DHT22;11220;48.812;9.128;2023-03-23T10:59:25;19.30;75.30
22108;DHT22;11220;48.812;9.128;2023-03-23T11:01:54;19.30;75.30
22108;DHT22;11220;48.812;9.128;2023-03-23T11:04:20;19.30;75.30
22108;DHT22;11220;48.812;9.128;2023-03-23T11:06:52;19.30;75.30
22108;DHT22;11220;48.812;9.128;2023-03-23T11:09:21;19.30;75.30
22108;DHT22;11220;48.812;9.128;2023-03-23T11:11:58;19.30;75.20
22108;DHT22;11220;48.812;9.128;2023-03-23T11:14:28;19.30;75.30
22108;DHT22;11220;48.812;9.128;2023-03-23T11:17:02;19.30;75.20
22108;DHT22;11220;48.812;9.128;2023-03-23T11:19:30;19.30;75.20
22108;DHT22;11220;48.812;9.128;2023-03-23T11:22:07;19.30;75.20
22108;DHT22;11220;48.812;9.128;2023-03-23T11:24:40;19.30;75.10
22108;DHT22;11220;48.812;9.128;2023-03-23T11:27:06;19.30;75.10
22108;DHT22;11220;48.812;9.128;2023-03-23T11:29:35;19.30;75.10
22108;DHT22;11220;48.812;9.128;2023-03-23T11:32:10;19.30;75.00
22108;DHT22;11220;48.812;9.128;2023-03-23T11:37:16;19.30;74.90
22108;DHT22;11220;48.812;9.128;2023-03-23T11:39:57;19.30;74.90
22108;DHT22;11220;48.812;9.128;2023-03-23T11:42:37;19.30;74.90
22108;DHT22;11220;48.812;9.128;2023-03-23T11:45:13;19.30;74.80
22108;DHT22;11220;48.812;9.128;2023-03-23T11:47:56;19.30;74.90
22108;DHT22;11220;48.812;9.128;2023-03-23T11:50:33;19.30;74.80
22108;DHT22;11220;48.812;9.128;2023-03-23T11:53:09;19.40;74.90
22108;DHT22;11220;48.812;9.128;2023-03-23T11:58:13;19.40;74.90
22108;DHT22;11220;48.812;9.128;2023-03-23T12:00:55;19.40;74.80
22108;DHT22;11220;48.812;9.128;2023-03-23T12:03:55;19.40;74.90
22108;DHT22;11220;48.812;9.128;2023-03-23T12:09:48;19.40;75.00
22108;DHT22;11220;48.812;9.128;2023-03-23T12:12:40;19.40;75.10
22108;DHT22;11220;48.812;9.128;2023-03-23T12:17:50;19.50;75.20
22108;DHT22;11220;48.812;9.128;2023-03-23T12:25:39;19.50;75.30
22108;DHT22;11220;48.812;9.128;2023-03-23T12:28:32;19.50;75.30
22108;DHT22;11220;48.812;9.128;2023-03-23T12:31:29;19.50;75.30
22108;DHT22;11220;48.812;9.128;2023-03-23T12:36:42;19.60;75.30
22108;DHT22;11220;48.812;9.128;2023-03-23T12:42:03;19.60;75.40
22108;DHT22;11220;48.812;9.128;2023-03-23T12:44:38;19.60;75.50
22108;DHT22;11220;48.812;9.128;2023-03-23T12:50:05;19.70;75.60
22108;DHT22;11220;48.812;9.128;2023-03-23T12:53:03;19.70;75.60
22108;DHT22;11220;48.812;9.128;2023-03-23T12:58:21;19.70;75.60
22108;DHT22;11220;48.812;9.128;2023-03-23T13:00:57;19.70;75.50
22108;DHT22;11220;48.812;9.128;2023-03-23T13:03:36;19.70;75.50
22108;DHT22;11220;48.812;9.128;2023-03-23T13:06:42;19.70;75.40
22108;DHT22;11220;48.812;9.128;2023-03-23T13:10:03;19.70;75.50
22108;DHT22;11220;48.812;9.128;2023-03-23T13:12:11;19.70;75.50
22108;DHT22;11220;48.812;9.128;2023-03-23T13:15:01;19.70;75.50
22108;DHT22;11220;48.812;9.128;2023-03-23T13:20:47;19.70;75.60
22108;DHT22;11220;48.812;9.128;2023-03-23T13:23:20;19.80;75.50
22108;DHT22;11220;48.812;9.128;2023-03-23T13:25:56;19.80;75.40
22108;DHT22;11220;48.812;9.128;2023-03-23T13:28:27;19.80;75.30
22108;DHT22;11220;48.812;9.128;2023-03-23T13:31:02;19.80;75.30
22108;DHT22;11220;48.812;9.128;2023-03-23T13:33:31;19.80;75.30
22108;DHT22;11220;48.812;9.128;2023-03-23T13:39:02;19.90;75.20
22108;DHT22;11220;48.812;9.128;2023-03-23T13:41:29;19.80;75.20
22108;DHT22;11220;48.812;9.128;2023-03-23T13:44:16;19.90;75.20
22108;DHT22;11220;48.812;9.128;2023-03-23T13:46:53;19.90;75.20
22108;DHT22;11220;48.812;9.128;2023-03-23T13:49:20;19.80;75.10
22108;DHT22;11220;48.812;9.128;2023-03-23T13:51:58;19.90;75.10
22108;DHT22;11220;48.812;9.128;2023-03-23T13:56:58;20.40;75.40
22108;DHT22;11220;48.812;9.128;2023-03-23T14:04:42;19.80;75.00
22108;DHT22;11220;48.812;9.128;2023-03-23T14:07:12;19.80;75.00
22108;DHT22;11220;48.812;9.128;2023-03-23T14:09:41;19.80;75.00
22108;DHT22;11220;48.812;9.128;2023-03-23T14:12:19;19.80;75.10
22108;DHT22;11220;48.812;9.128;2023-03-23T14:15:01;19.80;75.10
22108;DHT22;11220;48.812;9.128;2023-03-23T14:17:31;19.80;75.10
22108;DHT22;11220;48.812;9.128;2023-03-23T14:19:59;19.80;75.10
22108;DHT22;11220;48.812;9.128;2023-03-23T14:22:33;20.80;75.80
22108;DHT22;11220;48.812;9.128;2023-03-23T14:25:16;19.80;75.10
22108;DHT22;11220;48.812;9.128;2023-03-23T14:27:43;19.80;75.10
22108;DHT22;11220;48.812;9.128;2023-03-23T14:30:21;19.80;75.10
22108;DHT22;11220;48.812;9.128;2023-03-23T14:32:47;19.80;75.10
22108;DHT22;11220;48.812;9.128;2023-03-23T14:35:34;19.70;75.10
22108;DHT22;11220;48.812;9.128;2023-03-23T14:38:00;19.80;75.20
22108;DHT22;11220;48.812;9.128;2023-03-23T14:40:27;19.80;75.10
22108;DHT22;11220;48.812;9.128;2023-03-23T14:42:54;19.70;75.00
22108;DHT22;11220;48.812;9.128;2023-03-23T14:45:22;19.80;75.10
22108;DHT22;11220;48.812;9.128;2023-03-23T14:47:56;19.80;75.10
22108;DHT22;11220;48.812;9.128;2023-03-23T14:50:42;19.80;75.10
22108;DHT22;11220;48.812;9.128;2023-03-23T14:53:21;19.70;75.20
22108;DHT22;11220;48.812;9.128;2023-03-23T14:55:48;19.70;75.10
22108;DHT22;11220;48.812;9.128;2023-03-23T14:58:16;19.70;75.20
22108;DHT22;11220;48.812;9.128;2023-03-23T15:00:46;19.70;75.10
22108;DHT22;11220;48.812;9.128;2023-03-23T15:03:16;19.70;75.20
22108;DHT22;11220;48.812;9.128;2023-03-23T15:05:49;19.70;75.20
22108;DHT22;11220;48.812;9.128;2023-03-23T15:08:27;19.70;75.20
22108;DHT22;11220;48.812;9.128;2023-03-23T15:11:06;19.70;75.20
22108;DHT22;11220;48.812;9.128;2023-03-23T15:13:34;19.70;75.30
22108;DHT22;11220;48.812;9.128;2023-03-23T15:16:18;19.70;75.20
22108;DHT22;11220;48.812;9.128;2023-03-23T15:18:51;19.70;75.30
22108;DHT22;11220;48.812;9.128;2023-03-23T15:21:30;19.70;75.30
22108;DHT22;11220;48.812;9.128;2023-03-23T15:23:57;19.70;75.30
22108;DHT22;11220;48.812;9.128;2023-03-23T15:26:28;19.70;75.30
22108;DHT22;11220;48.812;9.128;2023-03-23T15:29:24;19.70;75.30
22108;DHT22;11220;48.812;9.128;2023-03-23T15:31:55;19.70;75.30
22108;DHT22;11220;48.812;9.128;2023-03-23T15:34:35;19.60;75.20
22108;DHT22;11220;48.812;9.128;2023-03-23T15:37:18;19.70;75.30
22108;DHT22;11220;48.812;9.128;2023-03-23T15:39:45;19.60;75.20
22108;DHT22;11220;48.812;9.128;2023-03-23T15:42:27;20.70;76.00
22108;DHT22;11220;48.812;9.128;2023-03-23T15:45:21;19.60;75.30
22108;DHT22;11220;48.812;9.128;2023-03-23T15:47:49;19.60;75.30
22108;DHT22;11220;48.812;9.128;2023-03-23T15:50:20;19.60;75.30
22108;DHT22;11220;48.812;9.128;2023-03-23T15:52:57;19.70;75.40
22108;DHT22;11220;48.812;9.128;2023-03-23T15:55:34;19.60;75.30
22108;DHT22;11220;48.812;9.128;2023-03-23T15:58:01;19.60;75.30
22108;DHT22;11220;48.812;9.128;2023-03-23T16:00:30;19.80;75.40
22108;DHT22;11220;48.812;9.128;2023-03-23T16:02:58;19.60;75.30
22108;DHT22;11220;48.812;9.128;2023-03-23T16:05:26;19.50;75.30
22108;DHT22;11220;48.812;9.128;2023-03-23T16:07:52;19.50;75.30
22108;DHT22;11220;48.812;9.128;2023-03-23T16:10:20;19.50;75.30
22108;DHT22;11220;48.812;9.128;2023-03-23T16:12:46;19.50;75.30
22108;DHT22;11220;48.812;9.128;2023-03-23T16:15:13;19.50;75.30
22108;DHT22;11220;48.812;9.128;2023-03-23T16:17:39;19.50;75.40
22108;DHT22;11220;48.812;9.128;2023-03-23T16:20:11;19.50;75.40
22108;DHT22;11220;48.812;9.128;2023-03-23T16:22:37;19.50;75.40
22108;DHT22;11220;48.812;9.128;2023-03-23T16:25:03;19.50;75.50
22108;DHT22;11220;48.812;9.128;2023-03-23T16:27:29;19.50;75.50
22108;DHT22;11220;48.812;9.128;2023-03-23T16:29:54;19.50;75.60
22108;DHT22;11220;48.812;9.128;2023-03-23T16:32:21;19.50;75.60
22108;DHT22;11220;48.812;9.128;2023-03-23T16:34:47;19.50;75.70
22108;DHT22;11220;48.812;9.128;2023-03-23T16:37:13;19.50;75.60
22108;DHT22;11220;48.812;9.128;2023-03-23T16:39:38;19.50;75.60
22108;DHT22;11220;48.812;9.128;2023-03-23T16:42:04;19.40;75.60
22108;DHT22;11220;48.812;9.128;2023-03-23T16:44:29;19.50;75.70
22108;DHT22;11220;48.812;9.128;2023-03-23T16:46:55;19.50;75.70
22108;DHT22;11220;48.812;9.128;2023-03-23T16:49:20;19.50;75.80
22108;DHT22;11220;48.812;9.128;2023-03-23T16:51:46;19.50;75.70
22108;DHT22;11220;48.812;9.128;2023-03-23T16:54:12;19.40;75.60
22108;DHT22;11220;48.812;9.128;2023-03-23T16:56:38;20.10;76.10
22108;DHT22;11220;48.812;9.128;2023-03-23T16:59:03;19.40;75.60
22108;DHT22;11220;48.812;9.128;2023-03-23T17:01:29;19.40;75.60
22108;DHT22;11220;48.812;9.128;2023-03-23T17:03:54;20.20;76.00